Terminal Aerodrome Forecast
Issued by NWS

Home | Current Version | Previous Version | Text Only | Print | Product List | Glossary On
Versions: 1 2 3 4 5 6 7 8 9 10 11 12 13 14 15 16 17 18 19 20 21 22
000
FTUS45 KBOU 221751 AAA
TAFBJC
TAF AMD
KBJC 221751Z 2218/2318 02012G22KT P6SM SCT120 BKN200
     FM221900 06013G20KT P6SM SCT080 BKN200
      TEMPO 2220/2224 VRB15G30KT -TSRA BKN060CB
     FM230300 04010KT P6SM VCSH BKN060 BKN090
     FM230600 02010KT P6SM VCSH BKN025 OVC040
     FM230900 02013KT 4SM BR VCSH BKN006 OVC015=

USA.gov is the U.S. government's official web portal to all federal, state and local government web resources and services.